Time;durP1;ratioP1;P1;durP2;ratioP2;P2;SDS_P1;SDS_P2;PMS_P1;PMS_P2;Temp;Humidity;BMP_temperature;BMP_pressure;BME280_temperature;BME280_humidity;BME280_pressure;Samples;Min_cycle;Max_cycle;Signal;HPM_P1;HPM_P2
2021/10/25 19:23:06;;;;;;;3.40;0.90;;;19.10;73.90;;;;;;5040651;28;20424;-78
2021/10/25 19:25:31;;;;;;;1.95;0.70;;;19.80;73.20;;;;;;5081014;28;20449;-77
2021/10/25 19:27:57;;;;;;;4.90;0.73;;;19.90;73.40;;;;;;5051436;28;20033;-78
2021/10/25 19:30:23;;;;;;;4.55;1.00;;;20.00;73.10;;;;;;5047392;28;20018;-69
2021/10/25 19:32:49;;;;;;;2.25;0.90;;;20.00;73.60;;;;;;5047767;28;20376;-69
2021/10/25 19:35:15;;;;;;;3.38;1.00;;;20.10;73.30;;;;;;5048034;28;20039;-69
2021/10/25 19:37:41;;;;;;;2.30;0.60;;;20.20;73.20;;;;;;5080729;28;20117;-72
2021/10/25 19:40:07;;;;;;;4.57;1.20;;;20.20;73.10;;;;;;5049402;28;20109;-70
2021/10/25 19:42:34;;;;;;;2.78;0.90;;;20.20;72.90;;;;;;5062685;28;20045;-72
2021/10/25 19:45:00;;;;;;;3.85;1.10;;;20.20;72.70;;;;;;5006097;28;20084;-70
2021/10/25 19:47:25;;;;;;;3.60;1.02;;;20.20;72.60;;;;;;5008537;28;20029;-70
2021/10/25 19:49:51;;;;;;;4.93;0.77;;;20.20;72.30;;;;;;5009810;28;20049;-78
2021/10/25 19:52:17;;;;;;;2.40;0.90;;;20.20;72.20;;;;;;5009902;28;20087;-71
2021/10/25 19:54:42;;;;;;;3.08;0.90;;;20.20;72.20;;;;;;5009908;28;20026;-72
2021/10/25 19:57:09;;;;;;;3.95;0.70;;;20.20;72.00;;;;;;5009157;28;20157;-74
2021/10/25 19:59:38;;;;;;;1.90;0.68;;;20.20;72.70;;;;;;5009228;28;20018;-76
2021/10/25 20:02:04;;;;;;;3.83;1.02;;;20.20;71.70;;;;;;5008568;28;20495;-71
2021/10/25 20:04:31;;;;;;;3.33;0.85;;;20.30;71.80;;;;;;5008313;28;20101;-72
2021/10/25 20:06:58;;;;;;;2.08;0.65;;;20.30;71.40;;;;;;5002184;28;20023;-72
2021/10/25 20:09:23;;;;;;;3.05;0.98;;;20.30;71.30;;;;;;4990155;28;20018;-79
2021/10/25 20:11:49;;;;;;;3.47;0.70;;;20.20;70.80;;;;;;5004308;28;20023;-78
2021/10/25 20:14:14;;;;;;;2.80;0.70;;;20.10;70.70;;;;;;5012726;28;20039;-72
2021/10/25 20:16:41;;;;;;;3.72;0.98;;;20.10;71.00;;;;;;5013727;28;20023;-72
2021/10/25 20:19:07;;;;;;;1.73;0.70;;;20.20;71.20;;;;;;4989429;28;20277;-73
2021/10/25 20:21:33;;;;;;;1.52;0.70;;;20.20;71.20;;;;;;4997453;28;20125;-72
2021/10/25 20:23:58;;;;;;;2.13;0.80;;;20.20;71.10;;;;;;4991277;28;20655;-71
2021/10/25 20:26:24;;;;;;;1.75;0.75;;;20.30;70.90;;;;;;5000119;28;20023;-73
2021/10/25 20:28:49;;;;;;;2.17;0.70;;;20.30;70.30;;;;;;4996645;28;20026;-77
2021/10/25 20:31:15;;;;;;;1.33;0.60;;;20.20;70.30;;;;;;5018378;28;20027;-76
2021/10/25 20:33:41;;;;;;;2.65;0.80;;;20.10;69.90;;;;;;4997966;28;20080;-78
2021/10/25 20:37:36;;;;;;;2.30;0.80;;;20.10;69.30;;;;;;5034858;27;50117;-65
2021/10/25 20:40:02;;;;;;;1.63;0.80;;;20.40;70.40;;;;;;5012710;28;20070;-65
2021/10/25 20:42:28;;;;;;;2.85;0.93;;;20.40;69.80;;;;;;5009728;28;20646;-65
2021/10/25 20:44:54;;;;;;;1.63;0.77;;;20.30;69.60;;;;;;5010414;28;20026;-64
2021/10/25 20:47:19;;;;;;;2.30;0.75;;;20.30;69.80;;;;;;5010000;28;20032;-63
2021/10/25 20:49:45;;;;;;;1.33;0.80;;;20.20;69.70;;;;;;5019161;28;20026;-63
2021/10/25 20:52:11;;;;;;;1.45;0.80;;;20.20;69.90;;;;;;5016857;28;20105;-63
2021/10/25 20:54:36;;;;;;;2.45;0.63;;;20.20;69.90;;;;;;5016196;28;20046;-63
2021/10/25 20:57:02;;;;;;;2.40;0.65;;;20.20;70.10;;;;;;5022301;28;20398;-65
2021/10/25 20:59:28;;;;;;;2.72;0.80;;;20.30;70.10;;;;;;5008908;28;20027;-64
2021/10/25 21:01:54;;;;;;;3.55;0.98;;;20.30;70.00;;;;;;5015830;28;20502;-64
2021/10/25 21:04:19;;;;;;;1.60;0.52;;;20.30;69.60;;;;;;5015630;28;20080;-64
